createdAt,value
2017-11-10T00:00:31.856Z,0
2017-11-10T00:01:42.270Z,0
2017-11-10T00:02:52.078Z,0
2017-11-10T00:04:02.159Z,0
2017-11-10T00:05:12.594Z,0
2017-11-10T00:06:22.687Z,0
2017-11-10T00:07:33.104Z,0
2017-11-10T00:08:43.180Z,0
2017-11-10T00:09:53.583Z,0
2017-11-10T00:11:03.990Z,0
2017-11-10T00:12:14.758Z,0
2017-11-10T00:13:24.866Z,0
2017-11-10T00:14:35.318Z,0
2017-11-10T00:15:45.396Z,0
2017-11-10T00:16:55.814Z,0
2017-11-10T00:18:05.239Z,0
2017-11-10T00:19:15.336Z,0
2017-11-10T00:20:25.814Z,0
2017-11-10T00:21:36.233Z,0
2017-11-10T00:22:46.652Z,0
2017-11-10T00:23:57.079Z,0
2017-11-10T00:25:06.840Z,0
2017-11-10T00:26:17.258Z,0
2017-11-10T00:27:27.682Z,0
2017-11-10T00:28:37.414Z,0
2017-11-10T00:29:47.852Z,0
2017-11-10T00:30:57.931Z,0
2017-11-10T00:32:08.066Z,0
2017-11-10T00:33:18.142Z,0
2017-11-10T00:34:28.584Z,0
2017-11-10T00:35:39.001Z,0
2017-11-10T00:36:49.411Z,0
2017-11-10T00:37:59.543Z,0
2017-11-10T00:39:09.624Z,0
2017-11-10T00:40:20.069Z,0
2017-11-10T00:41:30.488Z,0
2017-11-10T00:42:40.582Z,0
2017-11-10T00:43:50.658Z,0
2017-11-10T00:45:01.066Z,0
2017-11-10T00:46:11.464Z,0
2017-11-10T00:47:21.892Z,0
2017-11-10T00:48:31.986Z,0
2017-11-10T00:49:42.399Z,0
2017-11-10T00:50:52.794Z,0
2017-11-10T00:52:03.197Z,0
2017-11-10T00:53:12.953Z,0
2017-11-10T00:54:23.035Z,0
2017-11-10T00:55:32.835Z,0
2017-11-10T00:56:43.575Z,0
2017-11-10T00:57:53.894Z,0
2017-11-10T00:59:03.974Z,0
2017-11-10T01:00:13.733Z,0
2017-11-10T01:01:24.202Z,0
2017-11-10T01:02:34.612Z,0
2017-11-10T01:03:44.713Z,0
2017-11-10T01:04:54.793Z,0
2017-11-10T01:06:05.209Z,0
2017-11-10T01:07:15.260Z,0
2017-11-10T01:08:25.678Z,0
2017-11-10T01:09:35.773Z,0
2017-11-10T01:10:45.513Z,0
2017-11-10T01:11:55.929Z,0
2017-11-10T01:13:06.390Z,0
2017-11-10T01:14:16.903Z,0
2017-11-10T01:15:26.965Z,0
2017-11-10T01:16:37.372Z,0
2017-11-10T01:17:47.718Z,0
2017-11-10T01:18:57.876Z,0
2017-11-10T01:20:08.286Z,0
2017-11-10T01:21:18.733Z,0
2017-11-10T01:22:29.386Z,0
2017-11-10T01:23:39.452Z,0
2017-11-10T01:24:49.589Z,0
2017-11-10T01:25:59.992Z,0
2017-11-10T01:27:09.733Z,0
2017-11-10T01:28:19.810Z,0
2017-11-10T01:29:29.901Z,0
2017-11-10T01:30:40.397Z,0
2017-11-10T01:31:50.807Z,0
2017-11-10T01:33:00.892Z,0
2017-11-10T01:34:11.325Z,0
2017-11-10T01:35:21.736Z,0
2017-11-10T01:36:31.828Z,0
2017-11-10T01:37:42.230Z,0
2017-11-10T01:38:52.637Z,0
2017-11-10T01:40:02.724Z,0
2017-11-10T01:41:13.154Z,0
2017-11-10T01:42:23.558Z,0
2017-11-10T01:43:33.641Z,0
2017-11-10T01:44:44.086Z,0
2017-11-10T01:45:55.111Z,0
2017-11-10T01:47:05.523Z,0
2017-11-10T01:48:15.869Z,0
2017-11-10T01:49:25.941Z,0
2017-11-10T01:50:36.019Z,0
2017-11-10T01:51:46.095Z,0
2017-11-10T01:52:56.502Z,0
2017-11-10T01:54:08.463Z,0
2017-11-10T01:55:18.544Z,0
2017-11-10T01:56:28.627Z,0
2017-11-10T01:57:38.689Z,0
2017-11-10T01:58:48.458Z,0
2017-11-10T01:59:58.927Z,0
2017-11-10T02:01:09.010Z,0
2017-11-10T02:02:19.455Z,0
2017-11-10T02:03:29.209Z,0
2017-11-10T02:04:38.955Z,0
2017-11-10T02:05:49.420Z,0
2017-11-10T02:06:59.496Z,0
2017-11-10T02:08:09.921Z,0
2017-11-10T02:09:19.656Z,0
2017-11-10T02:10:30.067Z,0
2017-11-10T02:11:40.540Z,0
2017-11-10T02:12:50.997Z,0
2017-11-10T02:14:01.409Z,0
2017-11-10T02:15:11.853Z,0
2017-11-10T02:16:22.262Z,0
2017-11-10T02:17:32.352Z,0
2017-11-10T02:18:42.861Z,0
2017-11-10T02:19:53.311Z,0
2017-11-10T02:21:03.720Z,0
2017-11-10T02:22:14.128Z,0
2017-11-10T02:23:24.202Z,0
2017-11-10T02:24:34.619Z,0
2017-11-10T02:25:44.701Z,0
2017-11-10T02:26:55.117Z,0
2017-11-10T02:28:05.524Z,0
2017-11-10T02:29:15.893Z,0
2017-11-10T02:30:26.318Z,0
2017-11-10T02:31:36.074Z,0
2017-11-10T02:32:45.841Z,0
2017-11-10T02:33:56.260Z,0
2017-11-10T02:35:06.340Z,0
2017-11-10T02:36:16.750Z,0
2017-11-10T02:37:26.836Z,0
2017-11-10T02:38:36.922Z,0
2017-11-10T02:39:47.355Z,0
2017-11-10T02:40:57.779Z,0
2017-11-10T02:42:08.215Z,0
2017-11-10T02:43:18.317Z,0
2017-11-10T02:44:28.404Z,0
2017-11-10T02:45:38.204Z,0
2017-11-10T02:46:48.633Z,0
2017-11-10T02:47:58.718Z,0
2017-11-10T02:49:09.141Z,0
2017-11-10T02:50:19.549Z,0
2017-11-10T02:51:29.660Z,0
2017-11-10T02:52:40.130Z,0
2017-11-10T02:53:50.553Z,0
2017-11-10T02:55:00.305Z,0
2017-11-10T02:56:10.062Z,0
2017-11-10T02:57:20.794Z,0
2017-11-10T02:58:31.229Z,0
2017-11-10T02:59:41.668Z,0
2017-11-10T03:00:52.096Z,0
2017-11-10T03:33:02.211Z,0
2017-11-10T03:34:12.610Z,0
2017-11-10T03:35:23.017Z,0
2017-11-10T03:36:33.433Z,0
2017-11-10T03:37:43.859Z,0
2017-11-10T03:38:54.318Z,0
2017-11-10T03:40:04.723Z,0
2017-11-10T03:41:15.347Z,0
2017-11-10T03:42:25.443Z,0
2017-11-10T03:43:35.876Z,0
2017-11-10T03:44:45.949Z,0
2017-11-10T03:45:56.353Z,0
2017-11-10T03:47:06.197Z,0
2017-11-10T03:48:16.616Z,0
2017-11-10T03:49:26.687Z,0
2017-11-10T03:50:36.767Z,0
2017-11-10T03:51:47.185Z,0
2017-11-10T03:52:57.257Z,0
2017-11-10T03:54:07.673Z,0
2017-11-10T03:55:18.081Z,0
2017-11-10T03:56:28.571Z,0
2017-11-10T03:57:39.005Z,0
2017-11-10T03:58:49.410Z,0
2017-11-10T03:59:59.507Z,0
2017-11-10T04:01:09.603Z,0
2017-11-10T04:02:20.071Z,0
2017-11-10T04:03:30.167Z,0
2017-11-10T04:04:39.249Z,0
2017-11-10T04:05:49.326Z,0
2017-11-10T04:06:59.737Z,0
2017-11-10T04:08:10.152Z,0
2017-11-10T04:09:20.572Z,0
2017-11-10T04:10:30.644Z,0
2017-11-10T04:11:40.733Z,0
2017-11-10T04:12:50.853Z,0
2017-11-10T04:14:00.604Z,0
2017-11-10T04:15:10.680Z,0
2017-11-10T04:16:20.760Z,0
2017-11-10T04:17:30.834Z,0
2017-11-10T04:18:41.260Z,0
2017-11-10T04:19:51.677Z,0
2017-11-10T04:21:02.095Z,0
2017-11-10T04:22:12.536Z,0
2017-11-10T04:23:22.609Z,0
2017-11-10T04:24:33.006Z,0
2017-11-10T04:25:43.127Z,0
2017-11-10T04:26:52.898Z,0
2017-11-10T04:28:03.302Z,0
2017-11-10T04:29:13.715Z,0
2017-11-10T04:30:24.113Z,0
2017-11-10T04:31:34.186Z,0
2017-11-10T04:32:44.277Z,0
2017-11-10T04:33:54.688Z,0
2017-11-10T04:35:04.760Z,0
2017-11-10T04:36:15.176Z,0
2017-11-10T04:37:25.246Z,0
2017-11-10T04:38:35.650Z,0
2017-11-10T04:39:45.740Z,0
2017-11-10T04:40:56.169Z,0
2017-11-10T04:42:06.242Z,0
2017-11-10T04:43:16.719Z,0
2017-11-10T04:44:26.829Z,0
2017-11-10T04:45:37.267Z,0
2017-11-10T04:46:47.750Z,0
2017-11-10T04:47:58.172Z,0
2017-11-10T04:49:08.589Z,0
2017-11-10T04:50:17.997Z,0
2017-11-10T04:51:28.071Z,0
2017-11-10T04:52:37.486Z,0
2017-11-10T04:53:47.889Z,0
2017-11-10T04:54:58.316Z,0
2017-11-10T04:56:08.718Z,0
2017-11-10T04:57:19.118Z,0
2017-11-10T04:58:29.537Z,0
2017-11-10T04:59:39.285Z,0
2017-11-10T05:00:49.698Z,0
2017-11-10T05:01:59.786Z,0
2017-11-10T05:03:08.872Z,0
2017-11-10T05:04:19.284Z,0
2017-11-10T05:05:29.396Z,0
2017-11-10T05:06:39.535Z,0
2017-11-10T05:07:49.591Z,0
2017-11-10T05:09:00.004Z,0
2017-11-10T05:10:10.439Z,0
2017-11-10T05:11:20.838Z,0
2017-11-10T05:12:30.985Z,0
2017-11-10T05:13:41.420Z,0
2017-11-10T05:14:51.831Z,0
2017-11-10T05:16:02.232Z,0
2017-11-10T05:17:12.633Z,0
2017-11-10T05:18:23.031Z,0
2017-11-10T05:19:33.098Z,0
2017-11-10T05:20:43.519Z,0
2017-11-10T05:21:53.927Z,0
2017-11-10T05:23:04.041Z,0
2017-11-10T05:24:14.429Z,0
2017-11-10T05:25:24.516Z,0
2017-11-10T05:26:34.927Z,0
2017-11-10T05:27:45.004Z,0
2017-11-10T05:28:55.418Z,4
2017-11-10T05:30:05.834Z,4
2017-11-10T05:31:15.906Z,0
2017-11-10T05:32:26.317Z,0
2017-11-10T05:33:36.425Z,4
2017-11-10T05:34:46.846Z,0
2017-11-10T05:35:56.988Z,4
2017-11-10T05:37:07.060Z,4
2017-11-10T05:38:16.795Z,4
2017-11-10T05:39:27.213Z,4
2017-11-10T05:40:37.290Z,4
2017-11-10T05:41:47.363Z,4
2017-11-10T05:42:57.810Z,8
2017-11-10T05:44:08.237Z,8
2017-11-10T05:45:18.672Z,8
2017-11-10T05:46:29.113Z,8
2017-11-10T05:47:39.246Z,12
2017-11-10T05:48:49.353Z,12
2017-11-10T05:49:59.769Z,12
2017-11-10T05:51:10.187Z,16
2017-11-10T05:52:20.266Z,16
2017-11-10T05:53:30.366Z,20
2017-11-10T05:54:40.795Z,24
2017-11-10T05:55:50.532Z,24
2017-11-10T05:57:00.608Z,24
2017-11-10T05:58:10.675Z,28
2017-11-10T05:59:20.744Z,32
2017-11-10T06:00:31.154Z,36
2017-11-10T06:01:41.229Z,36
2017-11-10T06:02:51.332Z,36
2017-11-10T06:04:01.395Z,36
2017-11-10T06:05:11.812Z,40
2017-11-10T06:06:22.220Z,44
2017-11-10T06:07:31.972Z,44
2017-11-10T06:08:42.407Z,48
2017-11-10T06:09:52.835Z,52
2017-11-10T06:11:03.245Z,52
2017-11-10T06:12:13.327Z,56
2017-11-10T06:13:23.408Z,64
2017-11-10T06:14:33.828Z,64
2017-11-10T06:15:43.890Z,68
2017-11-10T06:16:54.357Z,72
2017-11-10T06:18:04.781Z,80
2017-11-10T06:19:15.206Z,80
2017-11-10T06:20:25.611Z,88
2017-11-10T06:21:35.706Z,88
2017-11-10T06:22:45.839Z,96
2017-11-10T06:23:55.575Z,96
2017-11-10T06:25:05.675Z,100
2017-11-10T06:26:16.073Z,108
2017-11-10T06:27:26.144Z,112
2017-11-10T06:28:35.881Z,116
2017-11-10T06:29:46.297Z,120
2017-11-10T06:30:56.690Z,124
2017-11-10T06:32:06.780Z,132
2017-11-10T06:33:16.858Z,140
2017-11-10T06:34:26.626Z,144
2017-11-10T06:35:36.703Z,152
2017-11-10T06:36:47.118Z,160
2017-11-10T06:37:57.214Z,168
2017-11-10T06:39:07.652Z,176
2017-11-10T06:40:17.729Z,180
2017-11-10T06:41:28.198Z,188
2017-11-10T06:42:38.283Z,200
2017-11-10T06:43:48.368Z,212
2017-11-10T06:44:58.453Z,224
2017-11-10T06:46:08.857Z,236
2017-11-10T06:47:19.266Z,248
2017-11-10T06:48:29.665Z,260
2017-11-10T06:49:40.073Z,268
2017-11-10T06:50:49.501Z,272
2017-11-10T06:51:59.907Z,272
2017-11-10T06:53:10.043Z,280
2017-11-10T06:54:19.794Z,280
2017-11-10T06:55:29.529Z,288
2017-11-10T06:56:39.938Z,296
2017-11-10T06:57:50.361Z,304
2017-11-10T06:59:00.432Z,316
2017-11-10T07:00:10.898Z,324
2017-11-10T07:01:20.981Z,332
2017-11-10T07:02:31.403Z,340
2017-11-10T07:03:41.469Z,344
2017-11-10T07:04:51.298Z,352
2017-11-10T07:06:01.709Z,356
2017-11-10T07:07:11.796Z,360
2017-11-10T07:08:21.927Z,356
2017-11-10T07:09:32.004Z,352
2017-11-10T07:10:42.096Z,348
2017-11-10T07:11:52.169Z,348
2017-11-10T07:13:02.570Z,352
2017-11-10T07:14:12.969Z,360
2017-11-10T07:15:23.384Z,372
2017-11-10T07:16:33.483Z,392
2017-11-10T07:17:43.912Z,412
2017-11-10T07:18:54.327Z,428
2017-11-10T07:20:04.758Z,444
2017-11-10T07:21:15.166Z,456
2017-11-10T07:22:25.237Z,472
2017-11-10T07:23:35.646Z,484
2017-11-10T07:24:46.082Z,492
2017-11-10T07:25:56.144Z,500
2017-11-10T07:27:06.243Z,508
2017-11-10T07:28:16.331Z,516
2017-11-10T07:29:26.080Z,520
2017-11-10T07:30:36.500Z,520
2017-11-10T07:31:46.910Z,516
2017-11-10T07:32:57.328Z,516
2017-11-10T07:34:07.766Z,516
2017-11-10T07:35:17.886Z,520
2017-11-10T07:36:27.979Z,520
2017-11-10T07:37:37.392Z,524
2017-11-10T07:38:47.809Z,524
2017-11-10T07:39:58.235Z,528
2017-11-10T07:41:08.312Z,536
2017-11-10T07:42:18.060Z,548
2017-11-10T07:43:28.141Z,552
2017-11-10T07:44:38.231Z,556
2017-11-10T07:45:48.637Z,564
2017-11-10T07:46:58.395Z,576
2017-11-10T07:48:08.831Z,588
2017-11-10T07:49:19.258Z,600
2017-11-10T07:50:29.334Z,612
2017-11-10T07:51:39.482Z,616
2017-11-10T07:52:49.569Z,624
2017-11-10T07:53:59.973Z,632
2017-11-10T07:55:10.043Z,644
2017-11-10T07:56:20.456Z,664
2017-11-10T07:57:30.531Z,688
2017-11-10T07:58:40.619Z,716
2017-11-10T07:59:51.035Z,740
2017-11-10T08:01:01.456Z,748
2017-11-10T08:02:11.866Z,744
2017-11-10T08:03:21.270Z,728
2017-11-10T08:04:31.690Z,708
2017-11-10T08:05:41.763Z,708
2017-11-10T08:06:51.888Z,728
2017-11-10T08:08:01.979Z,756
2017-11-10T08:09:12.393Z,792
2017-11-10T08:10:22.707Z,828
2017-11-10T08:11:32.772Z,840
2017-11-10T08:12:43.237Z,832
2017-11-10T08:13:53.702Z,816
2017-11-10T08:15:04.137Z,820
2017-11-10T08:16:14.214Z,836
2017-11-10T08:17:23.964Z,860
2017-11-10T08:18:34.100Z,892
2017-11-10T08:19:44.509Z,924
2017-11-10T08:20:54.595Z,944
2017-11-10T08:22:04.686Z,956
2017-11-10T08:23:14.449Z,960
2017-11-10T08:24:24.880Z,952
2017-11-10T08:25:34.980Z,932
2017-11-10T08:26:45.080Z,916
2017-11-10T08:27:55.169Z,900
2017-11-10T08:29:05.579Z,880
2017-11-10T08:30:15.700Z,856
2017-11-10T08:31:25.782Z,836
2017-11-10T08:32:38.706Z,820
2017-11-10T08:33:54.555Z,792
2017-11-10T08:35:09.366Z,776
2017-11-10T08:36:23.966Z,756
2017-11-10T08:37:36.252Z,748
2017-11-10T08:38:46.794Z,756
2017-11-10T08:39:57.203Z,768
2017-11-10T08:41:06.951Z,776
2017-11-10T08:42:17.042Z,780
2017-11-10T08:43:27.504Z,788
2017-11-10T08:44:37.602Z,784
2017-11-10T08:45:47.877Z,784
2017-11-10T08:46:58.536Z,792
2017-11-10T08:48:08.625Z,796
2017-11-10T08:49:18.749Z,796
2017-11-10T08:50:49.389Z,800
2017-11-10T08:52:14.106Z,804
2017-11-10T08:53:24.561Z,800
2017-11-10T08:54:34.346Z,800
2017-11-10T08:55:44.848Z,808
2017-11-10T08:56:55.263Z,816
2017-11-10T08:58:05.705Z,828
2017-11-10T08:59:16.165Z,832
2017-11-10T09:00:26.602Z,836
2017-11-10T09:01:37.043Z,840
2017-11-10T09:02:47.636Z,832
2017-11-10T09:03:57.741Z,828
2017-11-10T09:05:07.527Z,832
2017-11-10T09:06:17.964Z,848
2017-11-10T09:07:28.138Z,860
2017-11-10T09:08:38.694Z,876
2017-11-10T09:09:49.110Z,888
2017-11-10T09:10:59.236Z,892
2017-11-10T09:15:48.703Z,912
2017-11-10T09:17:32.670Z,916
2017-11-10T09:19:39.573Z,936
2017-11-10T09:20:50.185Z,948
2017-11-10T09:22:00.301Z,944
2017-11-10T09:23:10.869Z,932
2017-11-10T09:24:21.242Z,932
2017-11-10T09:25:32.557Z,936
2017-11-10T09:26:44.056Z,940
2017-11-10T09:27:54.774Z,952
2017-11-10T09:29:05.725Z,956
2017-11-10T09:30:16.365Z,980
2017-11-10T09:31:26.794Z,1020
2017-11-10T09:32:37.277Z,1056
2017-11-10T09:33:47.694Z,1072
2017-11-10T09:34:57.440Z,1096
2017-11-10T09:36:07.528Z,1136
2017-11-10T09:37:17.635Z,1196
2017-11-10T09:38:27.449Z,1240
2017-11-10T09:39:37.229Z,1284
2017-11-10T09:40:47.675Z,1328
2017-11-10T09:41:57.783Z,1356
2017-11-10T09:43:08.310Z,1376
2017-11-10T09:44:18.459Z,1388
2017-11-10T09:45:28.632Z,1400
2017-11-10T09:46:39.076Z,1404
2017-11-10T09:47:49.166Z,1384
2017-11-10T09:48:59.603Z,1324
2017-11-10T09:50:10.071Z,1244
2017-11-10T09:51:20.150Z,1188
2017-11-10T09:52:30.569Z,1172
2017-11-10T09:53:39.996Z,1180
2017-11-10T09:54:50.417Z,1176
2017-11-10T09:56:00.899Z,1164
2017-11-10T09:57:11.005Z,1172
2017-11-10T09:58:21.086Z,1192
2017-11-10T09:59:31.238Z,1200
2017-11-10T10:00:41.685Z,1196
2017-11-10T10:01:52.149Z,1196
2017-11-10T10:03:02.266Z,1188
2017-11-10T10:04:12.706Z,1180
2017-11-10T10:05:22.786Z,1176
2017-11-10T10:06:33.217Z,1172
2017-11-10T10:07:43.638Z,1168
2017-11-10T10:08:54.053Z,1156
2017-11-10T10:10:04.149Z,1164
2017-11-10T10:11:14.566Z,1188
2017-11-10T10:12:25.002Z,1216
2017-11-10T10:13:34.479Z,1248
2017-11-10T10:14:44.612Z,1272
2017-11-10T10:15:55.054Z,1280
2017-11-10T10:17:04.805Z,1264
2017-11-10T10:18:14.907Z,1236
2017-11-10T10:19:25.375Z,1220
2017-11-10T10:20:35.515Z,1216
2017-11-10T10:21:45.648Z,1220
2017-11-10T10:22:55.776Z,1204
2017-11-10T10:24:05.898Z,1180
2017-11-10T10:25:16.396Z,1160
2017-11-10T10:26:27.092Z,1148
2017-11-10T10:27:37.599Z,1140
2017-11-10T10:28:47.699Z,1140
2017-11-10T10:29:57.464Z,1136
2017-11-10T10:31:07.891Z,1144
2017-11-10T10:32:18.305Z,1148
2017-11-10T10:33:28.390Z,1144
2017-11-10T10:34:38.515Z,1132
2017-11-10T10:35:48.606Z,1132
2017-11-10T10:36:58.434Z,1148
2017-11-10T10:38:08.865Z,1180
2017-11-10T10:39:19.450Z,1208
2017-11-10T10:40:29.542Z,1236
2017-11-10T10:41:40.993Z,1244
2017-11-10T10:42:51.426Z,1244
2017-11-10T10:44:00.871Z,1236
2017-11-10T10:45:10.986Z,1236
2017-11-10T10:46:21.422Z,1248
2017-11-10T10:47:31.519Z,1252
2017-11-10T10:48:41.957Z,1264
2017-11-10T10:49:51.725Z,1280
2017-11-10T10:51:02.179Z,1304
2017-11-10T10:52:12.599Z,1324
2017-11-10T10:53:22.679Z,1332
2017-11-10T10:54:33.168Z,1332
2017-11-10T10:55:43.649Z,1344
2017-11-10T10:56:54.108Z,1372
2017-11-10T10:58:04.535Z,1396
2017-11-10T10:59:14.965Z,1408
2017-11-10T11:00:25.468Z,1428
2017-11-10T11:01:35.880Z,1448
2017-11-10T11:02:45.997Z,1480
2017-11-10T11:03:56.469Z,1524
2017-11-10T11:05:06.571Z,1560
2017-11-10T11:06:17.033Z,1576
2017-11-10T11:07:26.774Z,1596
2017-11-10T11:08:37.203Z,1624
2017-11-10T11:09:47.627Z,1660
2017-11-10T11:10:57.736Z,1680
2017-11-10T11:12:08.212Z,1692
2017-11-10T11:13:18.345Z,1704
2017-11-10T11:14:28.764Z,1732
2017-11-10T11:15:38.848Z,1776
2017-11-10T11:16:49.271Z,1812
2017-11-10T11:17:59.428Z,1852
2017-11-10T11:19:09.195Z,1884
2017-11-10T11:20:19.286Z,1908
2017-11-10T11:21:29.714Z,1920
2017-11-10T11:22:40.130Z,1924
2017-11-10T11:23:50.227Z,1904
2017-11-10T11:25:00.643Z,1876
2017-11-10T11:26:10.752Z,1848
2017-11-10T11:27:21.200Z,1812
2017-11-10T11:28:31.289Z,1788
2017-11-10T11:29:41.431Z,1780
2017-11-10T11:30:51.850Z,1796
2017-11-10T11:32:02.289Z,1800
2017-11-10T11:33:12.706Z,1788
2017-11-10T11:34:23.152Z,1756
2017-11-10T11:35:33.226Z,1712
2017-11-10T11:36:43.667Z,1676
2017-11-10T11:37:54.110Z,1640
2017-11-10T11:39:04.526Z,1628
2017-11-10T11:40:14.624Z,1628
2017-11-10T11:41:24.087Z,1640
2017-11-10T11:42:34.213Z,1664
2017-11-10T11:43:44.628Z,1676
2017-11-10T11:44:54.734Z,1672
2017-11-10T11:46:04.524Z,1656
2017-11-10T11:47:15.038Z,1612
2017-11-10T11:48:25.480Z,1564
2017-11-10T11:49:35.913Z,1540
2017-11-10T11:50:46.363Z,1544
2017-11-10T11:51:56.441Z,1564
2017-11-10T11:53:06.911Z,1588
2017-11-10T11:54:17.000Z,1616
2017-11-10T11:55:27.090Z,1660
2017-11-10T11:56:36.512Z,1728
2017-11-10T11:57:46.281Z,1844
2017-11-10T11:58:56.422Z,1960
2017-11-10T12:00:06.532Z,2036
2017-11-10T12:01:16.958Z,2048
2017-11-10T12:02:27.406Z,2052
2017-11-10T12:03:37.846Z,2092
2017-11-10T12:04:46.966Z,2140
2017-11-10T12:05:57.077Z,2148
2017-11-10T12:07:07.193Z,2128
2017-11-10T12:08:17.643Z,2116
2017-11-10T12:09:27.723Z,2100
2017-11-10T12:10:37.881Z,2068
2017-11-10T12:11:47.985Z,2024
2017-11-10T12:12:57.764Z,2020
2017-11-10T12:14:08.186Z,2048
2017-11-10T12:15:18.652Z,2052
2017-11-10T12:16:28.461Z,2024
2017-11-10T12:17:38.566Z,2008
2017-11-10T12:18:48.652Z,2020
2017-11-10T12:19:58.411Z,2056
2017-11-10T12:21:08.846Z,2096
2017-11-10T12:22:19.267Z,2116
2017-11-10T12:23:29.357Z,2148
2017-11-10T12:24:39.457Z,2196
2017-11-10T12:25:49.881Z,2244
2017-11-10T12:27:00.310Z,2272
2017-11-10T12:28:10.767Z,2288
2017-11-10T12:29:21.228Z,2284
2017-11-10T12:30:31.660Z,2220
2017-11-10T12:31:41.080Z,2124
2017-11-10T12:32:50.900Z,2020
2017-11-10T12:34:00.695Z,1928
2017-11-10T12:35:10.116Z,1884
2017-11-10T12:36:20.232Z,1880
2017-11-10T12:37:30.651Z,1888
2017-11-10T12:38:40.402Z,1892
2017-11-10T12:39:50.224Z,1876
2017-11-10T12:41:00.667Z,1856
2017-11-10T12:42:10.795Z,1832
2017-11-10T12:43:21.219Z,1832
2017-11-10T12:44:31.416Z,1820
2017-11-10T12:45:41.896Z,1800
2017-11-10T12:46:51.997Z,1772
2017-11-10T12:48:03.262Z,1756
2017-11-10T12:49:13.356Z,1736
2017-11-10T12:50:23.163Z,1680
2017-11-10T12:51:33.597Z,1628
2017-11-10T12:52:44.069Z,1584
2017-11-10T12:53:54.492Z,1572
2017-11-10T12:55:04.254Z,1552
2017-11-10T12:56:14.365Z,1536
2017-11-10T12:57:24.515Z,1532
2017-11-10T12:58:34.928Z,1540
2017-11-10T12:59:44.683Z,1532
2017-11-10T13:00:54.777Z,1524
2017-11-10T13:02:04.870Z,1516
2017-11-10T13:03:15.546Z,1496
2017-11-10T13:04:25.640Z,1476
2017-11-10T13:05:36.060Z,1460
2017-11-10T13:06:46.163Z,1448
2017-11-10T13:07:56.257Z,1456
2017-11-10T13:09:06.726Z,1464
2017-11-10T13:10:16.813Z,1464
2017-11-10T13:11:26.568Z,1464
2017-11-10T13:12:36.997Z,1468
2017-11-10T13:13:47.421Z,1488
2017-11-10T13:14:57.230Z,1524
2017-11-10T13:16:07.695Z,1540
2017-11-10T13:17:18.131Z,1532
2017-11-10T13:18:28.240Z,1528
2017-11-10T13:19:38.318Z,1528
2017-11-10T13:20:48.412Z,1548
2017-11-10T13:21:58.480Z,1596
2017-11-10T13:23:08.947Z,1652
2017-11-10T13:24:19.372Z,1668
2017-11-10T13:25:29.133Z,1612
2017-11-10T13:26:38.944Z,1548
2017-11-10T13:27:49.037Z,1488
2017-11-10T13:28:59.131Z,1460
2017-11-10T13:30:09.570Z,1468
2017-11-10T13:31:19.659Z,1528
2017-11-10T13:32:29.422Z,1624
2017-11-10T13:33:39.871Z,1728
2017-11-10T13:34:50.288Z,1816
2017-11-10T13:36:00.718Z,1832
2017-11-10T13:37:11.151Z,1728
2017-11-10T13:38:21.313Z,1616
2017-11-10T13:39:31.507Z,1504
2017-11-10T13:40:41.619Z,1408
2017-11-10T13:41:52.082Z,1332
2017-11-10T13:43:02.518Z,1280
2017-11-10T13:44:12.963Z,1220
2017-11-10T13:45:23.073Z,1188
2017-11-10T13:46:33.152Z,1180
2017-11-10T13:47:43.259Z,1164
2017-11-10T13:48:53.688Z,1148
2017-11-10T13:50:04.891Z,1148
2017-11-10T13:51:15.304Z,1160
2017-11-10T13:52:25.405Z,1168
2017-11-10T13:53:35.824Z,1160
2017-11-10T13:54:46.251Z,1144
2017-11-10T13:55:56.391Z,1124
2017-11-10T13:57:06.494Z,1124
2017-11-10T13:58:16.620Z,1128
2017-11-10T13:59:27.044Z,1116
2017-11-10T14:00:37.132Z,1096
2017-11-10T14:01:47.608Z,1084
2017-11-10T14:02:57.708Z,1076
2017-11-10T14:04:08.136Z,1060
2017-11-10T14:05:18.240Z,1028
2017-11-10T14:06:28.666Z,1000
2017-11-10T14:07:38.827Z,972
2017-11-10T14:08:48.589Z,956
2017-11-10T14:09:58.682Z,940
2017-11-10T14:11:09.138Z,928
2017-11-10T14:12:19.569Z,912
2017-11-10T14:13:29.710Z,896
2017-11-10T14:14:39.778Z,900
2017-11-10T14:15:49.514Z,908
2017-11-10T14:16:59.948Z,916
2017-11-10T14:18:10.421Z,920
2017-11-10T14:19:20.231Z,908
2017-11-10T14:20:30.080Z,892
2017-11-10T14:21:40.508Z,868
2017-11-10T14:22:50.263Z,832
2017-11-10T14:24:00.716Z,792
2017-11-10T14:25:10.863Z,756
2017-11-10T14:26:21.285Z,724
2017-11-10T14:27:31.746Z,692
2017-11-10T14:28:41.855Z,664
2017-11-10T14:29:52.297Z,636
2017-11-10T14:31:02.108Z,608
2017-11-10T14:32:12.545Z,592
2017-11-10T14:33:23.005Z,576
2017-11-10T14:34:33.470Z,572
2017-11-10T14:35:43.560Z,564
2017-11-10T14:36:53.725Z,556
2017-11-10T14:38:04.149Z,552
2017-11-10T14:39:14.583Z,548
2017-11-10T14:40:24.665Z,524
2017-11-10T14:41:35.172Z,504
2017-11-10T14:42:45.302Z,484
2017-11-10T14:43:55.733Z,452
2017-11-10T14:45:05.493Z,420
2017-11-10T14:46:15.957Z,392
2017-11-10T14:47:26.412Z,360
2017-11-10T14:48:36.561Z,336
2017-11-10T14:49:46.680Z,316
2017-11-10T14:50:56.806Z,304
2017-11-10T14:52:07.233Z,296
2017-11-10T14:53:17.694Z,284
2017-11-10T14:54:27.844Z,272
2017-11-10T14:55:37.630Z,264
2017-11-10T14:56:48.066Z,252
2017-11-10T14:57:58.533Z,248
2017-11-10T14:59:08.279Z,240
2017-11-10T15:00:18.771Z,236
2017-11-10T15:01:28.532Z,224
2017-11-10T15:02:38.963Z,212
2017-11-10T15:03:49.413Z,200
2017-11-10T15:04:59.864Z,192
2017-11-10T15:06:10.310Z,180
2017-11-10T15:07:19.737Z,176
2017-11-10T15:08:29.485Z,164
2017-11-10T15:09:39.608Z,152
2017-11-10T15:10:49.689Z,140
2017-11-10T15:12:00.119Z,128
2017-11-10T15:13:10.238Z,120
2017-11-10T15:14:20.328Z,112
2017-11-10T15:15:30.765Z,104
2017-11-10T15:16:40.863Z,96
2017-11-10T15:17:51.340Z,92
2017-11-10T15:19:01.455Z,80
2017-11-10T15:20:11.555Z,76
2017-11-10T15:21:22.018Z,68
2017-11-10T15:22:32.128Z,60
2017-11-10T15:23:41.889Z,56
2017-11-10T15:24:52.327Z,48
2017-11-10T15:26:02.436Z,44
2017-11-10T15:27:12.864Z,40
2017-11-10T15:28:22.955Z,36
2017-11-10T15:29:33.443Z,32
2017-11-10T15:30:43.882Z,28
2017-11-10T15:31:54.313Z,28
2017-11-10T15:33:04.734Z,20
2017-11-10T15:34:14.833Z,16
2017-11-10T15:35:25.303Z,16
2017-11-10T15:36:35.400Z,16
2017-11-10T15:37:45.834Z,12
2017-11-10T15:38:56.271Z,12
2017-11-10T15:40:06.733Z,8
2017-11-10T15:41:17.203Z,4
2017-11-10T15:42:27.617Z,4
2017-11-10T15:43:37.701Z,8
2017-11-10T15:44:48.151Z,4
2017-11-10T15:45:57.941Z,4
2017-11-10T15:47:08.382Z,4
2017-11-10T15:48:19.985Z,0
2017-11-10T15:49:30.088Z,4
2017-11-10T15:50:40.528Z,4
2017-11-10T15:51:50.631Z,0
2017-11-10T15:53:00.766Z,0
2017-11-10T15:54:10.555Z,0
2017-11-10T15:55:20.989Z,0
2017-11-10T15:56:31.424Z,0
2017-11-10T15:57:41.534Z,0
2017-11-10T15:58:52.037Z,0
2017-11-10T16:00:01.465Z,0
2017-11-10T16:01:11.911Z,0
2017-11-10T16:02:22.040Z,0
2017-11-10T16:03:32.472Z,0
2017-11-10T16:04:42.619Z,0
2017-11-10T16:05:53.037Z,0
2017-11-10T16:07:03.454Z,0
2017-11-10T16:08:13.934Z,0
2017-11-10T16:09:24.379Z,0
2017-11-10T16:10:34.184Z,0
2017-11-10T16:11:44.442Z,0
2017-11-10T16:12:54.577Z,0
2017-11-10T16:14:05.095Z,0
2017-11-10T16:15:15.545Z,0
2017-11-10T16:16:26.046Z,0
2017-11-10T16:17:36.534Z,0
2017-11-10T16:18:46.978Z,0
2017-11-10T16:19:57.113Z,0
2017-11-10T16:21:07.578Z,0
2017-11-10T16:22:18.064Z,0
2017-11-10T16:23:28.493Z,0
2017-11-10T16:24:38.576Z,0
2017-11-10T16:25:48.682Z,0
2017-11-10T16:26:59.097Z,0
2017-11-10T16:28:08.852Z,0
2017-11-10T16:29:18.948Z,0
2017-11-10T16:30:29.050Z,0
2017-11-10T16:31:39.722Z,0
2017-11-10T16:32:49.822Z,0
2017-11-10T16:34:00.268Z,0
2017-11-10T16:35:10.397Z,0
2017-11-10T16:36:20.169Z,0
2017-11-10T16:37:30.638Z,0
2017-11-10T16:38:41.090Z,0
2017-11-10T16:39:51.227Z,0
2017-11-10T16:41:01.677Z,0
2017-11-10T16:42:11.772Z,0
2017-11-10T16:43:21.908Z,0
2017-11-10T16:44:32.336Z,0
2017-11-10T16:45:42.909Z,0
2017-11-10T16:46:53.035Z,0
2017-11-10T16:48:03.144Z,0
2017-11-10T16:49:12.929Z,0
2017-11-10T16:50:22.705Z,0
2017-11-10T16:51:32.538Z,0
2017-11-10T16:52:43.003Z,0
2017-11-10T16:53:53.459Z,0
2017-11-10T16:55:03.901Z,0
2017-11-10T16:56:13.677Z,0
2017-11-10T16:57:23.769Z,0
2017-11-10T16:58:33.551Z,0
2017-11-10T16:59:43.643Z,0
2017-11-10T17:00:53.743Z,0
2017-11-10T17:02:03.847Z,0
2017-11-10T17:03:14.338Z,0
2017-11-10T17:04:24.766Z,0